createdAt,value
2022-11-06T00:03:45.973Z,27.1
2022-11-06T00:08:52.356Z,27.1
2022-11-06T00:13:58.518Z,27
2022-11-06T00:19:05.338Z,27
2022-11-06T00:24:12.405Z,26.9
2022-11-06T00:29:39.351Z,26.9
2022-11-06T00:35:01.354Z,26.9
2022-11-06T00:40:06.477Z,26.9
2022-11-06T00:45:28.497Z,26.9
2022-11-06T00:50:51.541Z,26.8
2022-11-06T00:56:13.474Z,26.8
2022-11-06T01:01:36.381Z,26.8
2022-11-06T01:06:59.686Z,26.8
2022-11-06T01:12:48.415Z,26.8
2022-11-06T01:18:10.002Z,26.8
2022-11-06T01:23:32.909Z,26.7
2022-11-06T01:29:36.971Z,26.7
2022-11-06T01:34:59.476Z,26.7
2022-11-06T01:39:50.515Z,26.6
2022-11-06T01:45:32.097Z,26.6
2022-11-06T01:51:08.972Z,26.6
2022-11-06T01:56:31.542Z,26.6
2022-11-06T02:01:54.388Z,26.6
2022-11-06T02:07:17.137Z,26.6
2022-11-06T02:12:23.989Z,26.9
2022-11-06T02:18:00.840Z,27.3
2022-11-06T02:23:37.101Z,27.6
2022-11-06T02:28:58.597Z,28
2022-11-06T02:34:20.511Z,28.4
2022-11-06T02:39:57.468Z,28.9
2022-11-06T02:45:19.835Z,29.3
2022-11-06T02:50:56.715Z,29.7
2022-11-06T02:56:18.902Z,30.1
2022-11-06T03:01:41.431Z,30.6
2022-11-06T03:07:20.049Z,31
2022-11-06T03:12:42.042Z,31.4
2022-11-06T03:18:19.460Z,31.9
2022-11-06T03:23:56.689Z,32.4
2022-11-06T03:29:19.192Z,32.8
2022-11-06T03:34:31.160Z,33.3
2022-11-06T03:40:08.638Z,33.4
2022-11-06T03:45:44.564Z,33.7
2022-11-06T03:51:21.371Z,33.8
2022-11-06T03:56:58.199Z,34
2022-11-06T04:02:37.730Z,34.1
2022-11-06T04:07:59.734Z,34.1
2022-11-06T04:13:21.930Z,34.2
2022-11-06T04:18:43.191Z,34.2
2022-11-06T04:24:05.659Z,34.1
2022-11-06T04:29:43.299Z,34.3
2022-11-06T04:34:51.665Z,34.3
2022-11-06T04:40:12.980Z,34.3
2022-11-06T04:45:51.142Z,34.2
2022-11-06T04:50:57.368Z,34.1
2022-11-06T04:56:41.429Z,34.3
2022-11-06T05:02:21.842Z,34.3
2022-11-06T05:07:48.188Z,34.3
2022-11-06T05:13:24.674Z,34.1
2022-11-06T05:19:02.191Z,34.1
2022-11-06T05:24:39.675Z,34
2022-11-06T05:30:23.449Z,34
2022-11-06T05:36:00.409Z,33.8
2022-11-06T05:41:37.232Z,33.9
2022-11-06T05:47:39.446Z,33.9
2022-11-06T05:53:16.806Z,33.8
2022-11-06T05:58:39.742Z,33.8
2022-11-06T06:04:18.600Z,33.8
2022-11-06T06:09:55.580Z,33.6
2022-11-06T06:15:39.297Z,33.7
2022-11-06T06:21:17.438Z,33.6
2022-11-06T06:26:46.393Z,33.6
2022-11-06T06:32:24.618Z,33.5
2022-11-06T06:37:52.235Z,33.5
2022-11-06T06:43:36.094Z,33.4
2022-11-06T06:49:14.391Z,33.3
2022-11-06T06:54:51.809Z,33.3
2022-11-06T07:00:30.223Z,33.3
2022-11-06T07:06:15.630Z,33.3
2022-11-06T07:11:38.389Z,33.2
2022-11-06T07:17:16.567Z,33.1
2022-11-06T07:22:47.171Z,33.1
2022-11-06T07:28:09.417Z,33
2022-11-06T07:33:32.346Z,33.1
2022-11-06T07:38:54.348Z,33
2022-11-06T07:44:22.007Z,32.9
2022-11-06T07:49:31.674Z,32.9
2022-11-06T07:54:57.413Z,32.9
2022-11-06T08:00:19.190Z,32.8
2022-11-06T08:05:30.948Z,32.8
2022-11-06T08:10:54.545Z,32.7
2022-11-06T08:16:20.102Z,32.8
2022-11-06T08:21:43.205Z,32.7
2022-11-06T08:27:12.698Z,32.6
2022-11-06T08:32:35.759Z,32.6
2022-11-06T08:37:59.844Z,32.6
2022-11-06T08:43:08.735Z,32.6
2022-11-06T08:48:34.184Z,32.5
2022-11-06T08:53:59.263Z,32.4
2022-11-06T08:59:44.963Z,32.4
2022-11-06T09:05:31.002Z,32.4
2022-11-06T09:11:15.225Z,32.3
2022-11-06T09:16:44.499Z,32.3
2022-11-06T09:22:27.775Z,32.3
2022-11-06T09:28:16.174Z,32.2
2022-11-06T09:33:46.429Z,32.1
2022-11-06T09:39:25.629Z,32.1
2022-11-06T09:45:42.800Z,32.1
2022-11-06T09:51:22.991Z,32.1
2022-11-06T09:57:11.789Z,32.1
2022-11-06T10:02:56.231Z,32.1
2022-11-06T10:08:36.439Z,32.1
2022-11-06T10:14:13.843Z,32.1
2022-11-06T10:19:52.128Z,32.1
2022-11-06T10:25:31.835Z,32.1
2022-11-06T10:31:09.562Z,32.1
2022-11-06T10:36:49.838Z,32.1
2022-11-06T10:42:28.424Z,32.1
2022-11-06T10:48:05.301Z,32
2022-11-06T10:53:48.293Z,32
2022-11-06T10:59:31.696Z,32
2022-11-06T11:05:14.737Z,32
2022-11-06T11:10:39.566Z,31.9
2022-11-06T11:16:16.639Z,31.9
2022-11-06T11:21:39.101Z,31.9
2022-11-06T11:27:05.335Z,31.9
2022-11-06T11:32:30.110Z,31.9
2022-11-06T11:37:58.387Z,31.8
2022-11-06T11:43:22.287Z,31.8
2022-11-06T11:49:04.827Z,31.8
2022-11-06T11:54:48.656Z,31.8
2022-11-06T12:00:59.282Z,31.8
2022-11-06T12:06:42.121Z,31.8
2022-11-06T12:12:04.158Z,31.7
2022-11-06T12:17:26.717Z,31.8
2022-11-06T12:23:12.164Z,31.7
2022-11-06T12:28:49.562Z,31.7
2022-11-06T12:34:55.692Z,31.7
2022-11-06T12:40:40.067Z,31.6
2022-11-06T12:46:17.382Z,31.6
2022-11-06T12:51:40.961Z,31.6
2022-11-06T12:57:04.032Z,31.6
2022-11-06T13:02:44.493Z,31.6
2022-11-06T13:08:09.066Z,31.6
2022-11-06T13:13:48.351Z,31.6
2022-11-06T13:19:26.586Z,31.6
2022-11-06T13:25:04.318Z,31.5
2022-11-06T13:30:43.995Z,31.5
2022-11-06T13:36:21.327Z,31.5
2022-11-06T13:41:43.227Z,31.5
2022-11-06T13:47:21.477Z,31.4
2022-11-06T13:52:17.533Z,31.4
2022-11-06T13:57:41.432Z,31.4
2022-11-06T14:03:22.525Z,31.4
2022-11-06T14:09:06.901Z,31.6
2022-11-06T14:14:44.181Z,31.5
2022-11-06T14:20:23.874Z,31.4
2022-11-06T14:26:06.916Z,31.4
2022-11-06T14:32:19.552Z,31.4
2022-11-06T14:37:47.240Z,31.4
2022-11-06T14:43:29.335Z,31.4
2022-11-06T14:49:09.479Z,31.3
2022-11-06T14:54:47.096Z,31.3
2022-11-06T15:00:28.484Z,31.3
2022-11-06T15:06:11.564Z,31.3
2022-11-06T15:12:21.189Z,31.3
2022-11-06T15:17:49.787Z,31.3
2022-11-06T15:22:55.781Z,31.2
2022-11-06T15:28:18.580Z,31.2
2022-11-06T15:33:41.402Z,31.1
2022-11-06T15:39:03.123Z,31.1
2022-11-06T15:44:48.530Z,31.2
2022-11-06T15:50:25.866Z,31.3
2022-11-06T15:56:13.204Z,31.3
2022-11-06T16:01:55.630Z,31.3
2022-11-06T16:07:39.675Z,31.2
2022-11-06T16:13:24.073Z,31.2
2022-11-06T16:19:06.559Z,30.5
2022-11-06T16:24:18.843Z,29.1
2022-11-06T16:34:55.415Z,26.8
2022-11-06T16:41:26.460Z,25.9
2022-11-06T16:46:48.753Z,25.2
2022-11-06T16:52:11.647Z,24.6
2022-11-06T16:57:34.435Z,24.3
2022-11-06T17:03:01.766Z,23.9
2022-11-06T17:08:24.710Z,23.7
2022-11-06T17:14:02.443Z,23.4
2022-11-06T17:19:24.523Z,23.3
2022-11-06T17:25:10.547Z,23.1
2022-11-06T17:30:49.008Z,22.9
2022-11-06T17:36:11.290Z,22.8
2022-11-06T17:41:33.515Z,22.7
2022-11-06T17:46:56.171Z,22.6
2022-11-06T17:52:24.195Z,22.5
2022-11-06T17:57:36.463Z,22.4
2022-11-06T18:03:51.853Z,22.3
2022-11-06T18:09:28.840Z,22.2
2022-11-06T18:15:06.544Z,22.1
2022-11-06T18:19:57.505Z,22
2022-11-06T18:24:33.288Z,21.9
2022-11-06T18:30:00.477Z,21.9
2022-11-06T18:35:42.973Z,21.9
2022-11-06T18:41:24.735Z,21.8
2022-11-06T18:46:46.869Z,21.8
2022-11-06T18:53:12.078Z,21.8
2022-11-06T18:58:55.479Z,21.7
2022-11-06T19:04:42.113Z,21.7
2022-11-06T19:10:25.188Z,21.6
2022-11-06T19:15:46.720Z,21.6
2022-11-06T19:21:22.328Z,21.6
2022-11-06T19:27:21.438Z,21.6
2022-11-06T19:33:05.916Z,21.4
2022-11-06T19:38:30.138Z,21.4
2022-11-06T19:44:07.361Z,21.4
2022-11-06T19:49:51.173Z,21.3
2022-11-06T19:57:44.641Z,21.2
2022-11-06T20:14:15.509Z,21
2022-11-06T20:19:38.971Z,21
2022-11-06T20:30:51.646Z,20.9
2022-11-06T20:36:32.651Z,20.9
2022-11-06T20:42:13.416Z,20.8
2022-11-06T20:47:37.243Z,20.8
2022-11-06T20:53:50.934Z,20.8
2022-11-06T20:59:34.957Z,20.8
2022-11-06T21:04:43.082Z,20.8
2022-11-06T21:10:05.515Z,20.7
2022-11-06T21:15:27.688Z,20.7
2022-11-06T21:20:55.427Z,20.7
2022-11-06T21:26:35.121Z,20.7
2022-11-06T21:31:48.477Z,20.6
2022-11-06T21:37:18.831Z,20.6
2022-11-06T21:43:01.142Z,20.6
2022-11-06T21:48:14.697Z,20.6
2022-11-06T21:53:41.028Z,20.6
2022-11-06T21:59:19.740Z,20.6
2022-11-06T22:04:30.195Z,20.6
2022-11-06T22:10:14.417Z,20.6
2022-11-06T22:15:52.551Z,20.6
2022-11-06T22:21:14.721Z,20.6
2022-11-06T22:33:39.609Z,20.5
2022-11-06T22:39:17.385Z,20.4
2022-11-06T22:45:01.152Z,20.4
2022-11-06T22:50:39.046Z,20.5
2022-11-06T22:56:01.361Z,20.4
2022-11-06T23:01:42.117Z,20.4
2022-11-06T23:07:20.850Z,20.4
2022-11-06T23:13:00.194Z,20.4
2022-11-06T23:18:39.717Z,20.4
2022-11-06T23:23:46.651Z,20.4
2022-11-06T23:29:11.923Z,20.4
2022-11-06T23:34:33.154Z,20.4
2022-11-06T23:39:48.290Z,20.4
2022-11-06T23:44:55.218Z,20.4
2022-11-06T23:50:19.847Z,20.3
2022-11-06T23:55:57.694Z,20.3
